D/T METAR WX W/DIR W/SPE G/SPE TEMP DEWP
22/01/20 08:50 EGLC 220850Z 21004KT 160V240 2000 HZ BKN004 05/04 Q1038 HZ SSW (210°) 4.6mph 5°C 4°C
22/01/20 07:50 EGLC 220750Z AUTO VRB02KT 2500 HZ BKN003 OVC011 06/05 Q1037 HZ N (0°) 2.3mph 6°C 5°C
22/01/20 07:20 EGLC 220720Z AUTO 30003KT 2100 BR BKN002 OVC011 05/05 Q1037 BR WNW (300°) 3.5mph 5°C 5°C
22/01/20 06:50 EGLC 220650Z AUTO VRB03KT 1700 BR OVC002 05/05 Q1037 BR N (0°) 3.5mph 5°C 5°C
22/01/20 06:20 EGLC 220620Z 29003KT 1200 HZ OVC003 05/05 Q1037 HZ WNW (290°) 3.5mph 5°C 5°C
22/01/20 05:20 EGLC 220520Z AUTO VRB01KT 1800 HZ OVC003 05/04 Q1037 HZ N (0°) 1.2mph 5°C 4°C
22/01/20 04:50 EGLC 220450Z AUTO VRB03KT 3000 HZ BKN003 OVC006 05/04 Q1037 HZ N (0°) 3.5mph 5°C 4°C
22/01/20 03:50 EGLC 220350Z AUTO VRB02KT 9999 OVC007 05/03 Q1038 N (0°) 2.3mph 5°C 3°C
22/01/20 03:20 EGLC 220320Z AUTO 28003KT 9999 OVC011 04/03 Q1038 W (280°) 3.5mph 4°C 3°C
22/01/20 02:50 EGLC 220250Z AUTO 23003KT 9999 OVC013 04/03 Q1038 SW (230°) 3.5mph 4°C 3°C
22/01/20 02:20 EGLC 220220Z AUTO 24003KT 9000 OVC014 04/03 Q1038 WSW (240°) 3.5mph 4°C 3°C
22/01/20 01:50 EGLC 220150Z AUTO VRB03KT 9999 OVC015 04/03 Q1038 N (0°) 3.5mph 4°C 3°C
22/01/20 01:20 EGLC 220120Z AUTO 23004KT 9000 OVC016 04/03 Q1039 SW (230°) 4.6mph 4°C 3°C
22/01/20 00:20 EGLC 220020Z AUTO 24003KT 9000 OVC016 04/03 Q1039 WSW (240°) 3.5mph 4°C 3°C
21/01/20 23:50 EGLC 212350Z AUTO 22004KT 9000 OVC015 04/03 Q1040 SW (220°) 4.6mph 4°C 3°C
21/01/20 23:20 EGLC 212320Z AUTO 21003KT 9000 OVC018 04/02 Q1040 SSW (210°) 3.5mph 4°C 2°C
21/01/20 22:20 EGLC 212220Z AUTO 22003KT 9000 OVC020 04/03 Q1039 SW (220°) 3.5mph 4°C 3°C
21/01/20 21:50 EGLC 212150Z AUTO 22003KT 9000 BKN020 04/02 Q1039 SW (220°) 3.5mph 4°C 2°C
21/01/20 21:20 EGLC 212120Z AUTO 22005KT 9000 NCD 04/02 Q1039 SW (220°) 5.8mph 4°C 2°C
21/01/20 20:50 EGLC 212050Z AUTO 22005KT 9999 NCD 05/02 Q1039 SW (220°) 5.8mph 5°C 2°C
21/01/20 20:20 EGLC 212020Z AUTO 24004KT 200V280 9999 FEW023 05/03 Q1040 WSW (240°) 4.6mph 5°C 3°C
21/01/20 19:20 EGLC 211920Z AUTO VRB03KT 9999 NCD 06/03 Q1039 N (0°) 3.5mph 6°C 3°C
21/01/20 18:50 EGLC 211850Z AUTO 25005KT 200V290 9999 NCD 06/03 Q1040 WSW (250°) 5.8mph 6°C 3°C
21/01/20 18:20 EGLC 211820Z AUTO 23004KT 190V280 9999 NCD 06/03 Q1040 SW (230°) 4.6mph 6°C 3°C
21/01/20 17:50 EGLC 211750Z AUTO 22004KT 160V290 9999 NCD 06/03 Q1040 SW (220°) 4.6mph 6°C 3°C
21/01/20 17:20 EGLC 211720Z AUTO 24004KT 190V280 9999 NCD 07/03 Q1040 WSW (240°) 4.6mph 7°C 3°C
21/01/20 16:50 EGLC 211650Z AUTO 25004KT 9999 NCD 07/03 Q1040 WSW (250°) 4.6mph 7°C 3°C
21/01/20 16:20 EGLC 211620Z AUTO 24004KT 200V280 9999 NCD 07/03 Q1040 WSW (240°) 4.6mph 7°C 3°C
21/01/20 15:20 EGLC 211520Z AUTO 25004KT 9999 NCD 08/03 Q1040 WSW (250°) 4.6mph 8°C 3°C
21/01/20 14:50 EGLC 211450Z AUTO 28004KT 9999 NCD 08/03 Q1040 W (280°) 4.6mph 8°C 3°C
21/01/20 13:50 EGLC 211350Z AUTO VRB03KT 9999 NCD 08/03 Q1041 N (0°) 3.5mph 8°C 3°C
21/01/20 13:20 EGLC 211320Z AUTO 24005KT 190V280 9999 NCD 08/03 Q1041 WSW (240°) 5.8mph 8°C 3°C
21/01/20 12:20 EGLC 211220Z AUTO 23004KT 200V260 9000 NCD 06/03 Q1042 SW (230°) 4.6mph 6°C 3°C
21/01/20 11:50 EGLC 211150Z AUTO 22005G15KT 190V300 9999 NCD 06/02 Q1042 SW (220°) 5.8mph 17.3mph 6°C 2°C
21/01/20 11:20 EGLC 211120Z AUTO 22005KT 190V280 9000 NCD 05/02 Q1042 SW (220°) 5.8mph 5°C 2°C
21/01/20 10:50 EGLC 211050Z AUTO 23006KT 200V260 9000 NCD 04/02 Q1043 SW (230°) 6.9mph 4°C 2°C
21/01/20 10:20 EGLC 211020Z AUTO 23005KT 180V260 9000 NCD 04/02 Q1043 SW (230°) 5.8mph 4°C 2°C
21/01/20 09:50 EGLC 210950Z AUTO 20005KT 160V220 8000 NCD 03/01 Q1043 SSW (200°) 5.8mph 3°C 1°C
21/01/20 09:20 EGLC 210920Z AUTO 27004KT 7000 FEW016 02/01 Q1043 W (270°) 4.6mph 2°C 1°C
21/01/20 08:50 EGLC 210850Z AUTO 26004KT 7000 NCD 02/01 Q1042 W (260°) 4.6mph 2°C 1°C
21/01/20 08:20 EGLC 210820Z AUTO 24005KT 7000 NCD 01/00 Q1042 WSW (240°) 5.8mph 1°C 0°C
21/01/20 07:50 EGLC 210750Z AUTO 23006KT 7000 NCD 01/00 Q1042 SW (230°) 6.9mph 1°C 0°C
21/01/20 07:20 EGLC 210720Z AUTO 24006KT 190V290 7000 NCD 01/00 Q1042 WSW (240°) 6.9mph 1°C 0°C
21/01/20 06:50 EGLC 210650Z AUTO 23005KT 8000 NCD 01/M00 Q1042 SW (230°) 5.8mph 1°C 0°C
21/01/20 06:20 EGLC 210620Z AUTO 24005KT 8000 NCD 01/M00 Q1042 WSW (240°) 5.8mph 1°C 0°C
21/01/20 05:50 EGLC 210550Z AUTO 24004KT 9000 NCD 01/M00 Q1042 WSW (240°) 4.6mph 1°C 0°C
21/01/20 05:20 EGLC 210520Z AUTO 23005KT 9999 NCD 01/00 Q1042 SW (230°) 5.8mph 1°C 0°C
21/01/20 04:50 EGLC 210450Z AUTO 23004KT 9999 NCD 02/00 Q1042 SW (230°) 4.6mph 2°C 0°C